createdAt,value
2023-02-28T13:56:05.041Z,946.00
2023-02-28T14:02:24.542Z,1415.00
2023-02-28T14:06:24.483Z,817.00
2023-02-28T14:10:24.442Z,781.00
2023-02-28T14:14:24.391Z,793.00
2023-02-28T14:18:26.915Z,795.00
2023-02-28T14:22:24.344Z,795.00
2023-02-28T14:26:24.307Z,798.00
2023-02-28T14:30:24.281Z,787.00
2023-02-28T14:34:24.232Z,785.00
2023-02-28T14:38:24.189Z,777.00
2023-02-28T14:42:24.184Z,766.00
2023-02-28T14:46:24.185Z,751.00
2023-02-28T14:50:24.106Z,740.00
2023-02-28T14:54:24.054Z,746.00
2023-02-28T14:58:24.013Z,743.00
2023-02-28T15:02:24.017Z,741.00
2023-02-28T15:06:23.960Z,734.00
2023-02-28T15:10:23.897Z,726.00
2023-02-28T15:14:23.845Z,718.00
2023-02-28T15:18:23.842Z,709.00
2023-02-28T15:22:23.977Z,705.00
2023-02-28T15:26:24.126Z,702.00
2023-02-28T15:30:24.149Z,697.00
2023-02-28T15:34:26.432Z,693.00
2023-02-28T15:38:24.132Z,685.00
2023-02-28T15:42:24.172Z,681.00
2023-02-28T15:46:24.050Z,676.00
2023-02-28T15:50:24.067Z,679.00
2023-02-28T15:54:24.063Z,681.00
2023-02-28T15:58:23.991Z,674.00
2023-02-28T16:02:24.069Z,669.00
2023-02-28T16:06:23.873Z,666.00
2023-02-28T16:10:24.025Z,664.00
2023-02-28T16:14:24.220Z,662.00
2023-02-28T16:18:24.414Z,657.00
2023-02-28T16:22:24.596Z,650.00
2023-02-28T16:26:24.835Z,654.00
2023-02-28T16:30:24.846Z,648.00
2023-02-28T16:34:24.771Z,646.00
2023-02-28T16:38:24.723Z,633.00
2023-02-28T16:42:24.708Z,634.00
2023-02-28T16:46:24.657Z,634.00
2023-02-28T16:50:24.631Z,628.00
2023-02-28T16:54:24.584Z,627.00
2023-02-28T16:58:24.549Z,621.00
2023-02-28T17:02:24.663Z,614.00
2023-02-28T17:06:24.474Z,614.00
2023-02-28T17:10:24.506Z,611.00
2023-02-28T17:14:24.387Z,610.00
2023-02-28T17:18:24.418Z,604.00
2023-02-28T17:22:24.332Z,602.00
2023-02-28T17:26:24.306Z,598.00
2023-02-28T17:30:24.273Z,597.00
2023-02-28T17:34:24.258Z,597.00
2023-02-28T17:38:24.242Z,595.00
2023-02-28T17:42:24.158Z,593.00
2023-02-28T17:46:24.181Z,593.00
2023-02-28T17:50:24.171Z,584.00
2023-02-28T17:54:24.281Z,582.00
2023-02-28T17:58:24.438Z,586.00
2023-02-28T18:02:24.742Z,589.00
2023-02-28T18:06:24.754Z,583.00
2023-02-28T18:10:24.920Z,584.00
2023-02-28T18:14:25.065Z,578.00
2023-02-28T18:18:25.235Z,577.00
2023-02-28T18:22:25.462Z,568.00
2023-02-28T18:26:25.603Z,564.00
2023-02-28T18:30:25.851Z,566.00
2023-02-28T18:34:25.816Z,566.00
2023-02-28T18:38:25.737Z,561.00
2023-02-28T18:42:25.748Z,565.00
2023-02-28T18:46:25.719Z,565.00
2023-02-28T18:50:25.636Z,569.00
2023-02-28T18:54:25.615Z,577.00
2023-02-28T18:58:25.539Z,574.00
2023-02-28T19:02:25.542Z,567.00
2023-02-28T19:06:25.503Z,563.00
2023-02-28T19:10:25.469Z,563.00
2023-02-28T19:14:25.424Z,562.00
2023-02-28T19:18:25.371Z,564.00
2023-02-28T19:22:25.342Z,562.00
2023-02-28T19:26:25.310Z,562.00
2023-02-28T19:30:25.294Z,562.00
2023-02-28T19:34:25.273Z,564.00
2023-02-28T19:38:25.202Z,557.00
2023-02-28T19:42:25.144Z,557.00
2023-02-28T19:46:25.161Z,558.00
2023-02-28T19:50:25.138Z,560.00
2023-02-28T19:54:25.188Z,549.00
2023-02-28T19:58:25.184Z,553.00
2023-02-28T20:02:25.210Z,554.00
2023-02-28T20:06:25.228Z,555.00
2023-02-28T20:10:25.340Z,553.00
2023-02-28T20:14:25.332Z,554.00
2023-02-28T20:18:25.385Z,550.00
2023-02-28T20:22:25.447Z,544.00
2023-02-28T20:26:25.483Z,547.00
2023-02-28T20:30:25.563Z,542.00
2023-02-28T20:34:25.614Z,538.00
2023-02-28T20:38:25.612Z,540.00
2023-02-28T20:42:25.680Z,534.00
2023-02-28T20:46:25.861Z,535.00
2023-02-28T20:50:25.889Z,533.00
2023-02-28T20:54:25.990Z,536.00
2023-02-28T20:58:26.105Z,540.00
2023-02-28T21:02:26.204Z,535.00
2023-02-28T21:06:26.324Z,535.00
2023-02-28T21:10:26.505Z,530.00
2023-02-28T21:14:26.568Z,528.00
2023-02-28T21:18:26.704Z,522.00
2023-02-28T21:22:26.811Z,525.00
2023-02-28T21:26:26.970Z,524.00
2023-02-28T21:30:27.071Z,521.00
2023-02-28T21:34:27.219Z,520.00
2023-02-28T21:38:27.331Z,515.00
2023-02-28T21:42:27.477Z,519.00
2023-02-28T21:46:27.753Z,517.00
2023-02-28T21:50:27.784Z,513.00
2023-02-28T21:54:27.943Z,515.00
2023-02-28T21:58:28.093Z,515.00
2023-02-28T22:02:30.206Z,509.00
2023-02-28T22:06:28.860Z,512.00
2023-02-28T22:10:28.640Z,508.00
2023-02-28T22:14:28.800Z,506.00
2023-02-28T22:18:28.993Z,512.00
2023-02-28T22:22:29.331Z,513.00
2023-02-28T22:26:29.749Z,514.00
2023-02-28T22:30:29.640Z,510.00
2023-02-28T22:34:29.833Z,508.00
2023-02-28T22:38:30.058Z,506.00
2023-02-28T22:42:30.249Z,503.00
2023-02-28T22:46:30.670Z,503.00
2023-02-28T22:50:30.191Z,503.00
2023-02-28T22:54:30.163Z,501.00
2023-02-28T22:58:30.141Z,500.00
2023-02-28T23:02:30.080Z,500.00
2023-02-28T23:06:30.541Z,499.00
2023-02-28T23:10:29.997Z,497.00
2023-02-28T23:14:30.013Z,499.00
2023-02-28T23:18:30.016Z,495.00
2023-02-28T23:22:29.969Z,494.00
2023-02-28T23:26:30.297Z,494.00
2023-02-28T23:30:29.897Z,496.00
2023-02-28T23:34:29.852Z,498.00
2023-02-28T23:38:29.832Z,495.00
2023-02-28T23:42:29.849Z,496.00
2023-02-28T23:46:30.102Z,492.00
2023-02-28T23:50:29.767Z,495.00
2023-02-28T23:54:29.710Z,490.00
2023-02-28T23:58:29.956Z,491.00
